Parkland, Washington
Current Conditions -  °F | °C
As of 4:58 PM on Friday 19 Dec 2014 (Local Time) from KTCM Reporting Station
Few Clouds Few Clouds  
Wind Chill: 45°   Ceiling: Unl
Heat Index: 45°   Visibility: 10mi
Dew Point: 39°   Wind: 3mph
Humidity: 81%   Direction: 170°S
Pressure: 29.95"   Gusts: NA
Location:  47.16°N, 122.43°W
Report Text: KTCM 200058Z AUTO 17003KT 10SM FEW065 07/04 A2995 RMK AO2 SLP147 T00710040
Loading
Personal Weather Stations






























Interactive Weather Map New forecast layout! Learn more

10-Day Weather Forecast

Advertisements
Track Severe Weather on mobile